Time;durP1;ratioP1;P1;durP2;ratioP2;P2;SDS_P1;SDS_P2;PMS_P1;PMS_P2;Temp;Humidity;BMP_temperature;BMP_pressure;BME280_temperature;BME280_humidity;BME280_pressure;Samples;Min_cycle;Max_cycle;Signal;HPM_P1;HPM_P2
2023/12/06 00:02:13;;;;;;;1.88;0.80;;;;;;;;;;5164363;28;20040;-66
2023/12/06 00:04:44;;;;;;;1.10;0.50;;;;;;;;;;5163019;28;20042;-67
2023/12/06 00:07:16;;;;;;;2.67;0.60;;;;;;;;;;5164254;28;20045;-66
2023/12/06 00:09:47;;;;;;;2.88;0.63;;;;;;;;;;5164497;28;20041;-66
2023/12/06 00:12:18;;;;;;;0.90;0.50;;;;;;;;;;5153422;28;20038;-70
2023/12/06 00:14:49;;;;;;;3.15;1.00;;;;;;;;;;5168222;28;20407;-69
2023/12/06 00:17:20;;;;;;;4.43;0.60;;;;;;;;;;5167743;28;20061;-71
2023/12/06 00:19:52;;;;;;;3.15;0.70;;;;;;;;;;5173262;28;20500;-68
2023/12/06 00:22:23;;;;;;;1.42;0.65;;;;;;;;;;5176740;28;20034;-69
2023/12/06 00:24:54;;;;;;;1.80;0.50;;;;;;;;;;5168125;28;20125;-69
2023/12/06 00:27:25;;;;;;;1.67;0.70;;;;;;;;;;5168394;28;20044;-70
2023/12/06 00:29:56;;;;;;;3.00;0.88;;;;;;;;;;5168478;28;20830;-69
2023/12/06 00:32:27;;;;;;;3.80;0.57;;;;;;;;;;5168538;28;20045;-68
2023/12/06 00:34:58;;;;;;;2.15;0.70;;;;;;;;;;5174353;28;20485;-70
2023/12/06 00:37:29;;;;;;;1.55;0.70;;;;;;;;;;5168356;28;20117;-69
2023/12/06 00:40:00;;;;;;;1.48;0.57;;;;;;;;;;5152505;28;20030;-68
2023/12/06 00:42:32;;;;;;;1.00;0.52;;;;;;;;;;5168212;28;20042;-68
2023/12/06 00:45:03;;;;;;;1.85;0.70;;;;;;;;;;5168008;28;20114;-68
2023/12/06 00:47:34;;;;;;;4.03;0.60;;;;;;;;;;5168173;28;20073;-68
2023/12/06 00:50:08;;;;;;;2.55;0.63;;;;;;;;;;5167532;28;20041;-68
2023/12/06 00:52:39;;;;;;;1.70;0.50;;;;;;;;;;5167841;28;20582;-69
2023/12/06 00:55:11;;;;;;;1.55;0.47;;;;;;;;;;5177161;28;20141;-68
2023/12/06 00:57:42;;;;;;;2.97;0.75;;;;;;;;;;5167711;28;20110;-69
2023/12/06 01:00:13;;;;;;;1.83;0.43;;;;;;;;;;5167898;28;20092;-71
2023/12/06 01:02:44;;;;;;;2.57;0.77;;;;;;;;;;5168788;28;20553;-67
2023/12/06 01:05:15;;;;;;;2.67;0.77;;;;;;;;;;5171226;28;20279;-68
2023/12/06 01:07:47;;;;;;;1.45;0.50;;;;;;;;;;5170355;28;20048;-69
2023/12/06 01:10:18;;;;;;;1.73;0.77;;;;;;;;;;5154067;28;20184;-68
2023/12/06 01:12:49;;;;;;;1.67;0.82;;;;;;;;;;5162510;28;20200;-65
2023/12/06 01:15:20;;;;;;;2.50;0.88;;;;;;;;;;5169003;28;20373;-65
2023/12/06 01:17:51;;;;;;;2.65;1.20;;;;;;;;;;5163623;28;20038;-64
2023/12/06 01:20:22;;;;;;;2.13;0.77;;;;;;;;;;5155028;28;20504;-64
2023/12/06 01:22:53;;;;;;;2.47;0.85;;;;;;;;;;5173515;28;20042;-63
2023/12/06 01:25:25;;;;;;;2.20;0.77;;;;;;;;;;5182704;28;20464;-63
2023/12/06 01:27:56;;;;;;;1.25;0.50;;;;;;;;;;5174420;28;20081;-63
2023/12/06 01:30:27;;;;;;;2.78;0.77;;;;;;;;;;5165930;28;20136;-63
2023/12/06 01:32:58;;;;;;;3.05;0.60;;;;;;;;;;5151667;28;20102;-63
2023/12/06 01:35:29;;;;;;;3.28;0.50;;;;;;;;;;5178797;28;20082;-63
2023/12/06 01:38:00;;;;;;;2.25;0.57;;;;;;;;;;5176762;28;20041;-65
2023/12/06 01:40:36;;;;;;;1.45;0.43;;;;;;;;;;5167314;28;20136;-64
2023/12/06 01:43:08;;;;;;;2.58;0.70;;;;;;;;;;5167500;28;20049;-63
2023/12/06 01:45:39;;;;;;;3.03;0.57;;;;;;;;;;5152852;28;20388;-63
2023/12/06 01:48:11;;;;;;;1.35;0.65;;;;;;;;;;5164555;28;20054;-63
2023/12/06 01:50:43;;;;;;;2.20;0.70;;;;;;;;;;5150789;28;20038;-63
2023/12/06 01:53:14;;;;;;;3.85;0.65;;;;;;;;;;5174995;28;20404;-63
2023/12/06 01:55:46;;;;;;;2.13;0.70;;;;;;;;;;5166945;28;20044;-63
2023/12/06 01:58:17;;;;;;;1.97;0.50;;;;;;;;;;5166812;28;20038;-63
2023/12/06 02:00:48;;;;;;;2.05;1.05;;;;;;;;;;5167019;28;20402;-63
2023/12/06 02:03:19;;;;;;;1.23;0.50;;;;;;;;;;5171945;28;20038;-63
2023/12/06 02:05:51;;;;;;;1.90;0.70;;;;;;;;;;5166764;28;20049;-63
2023/12/06 02:08:22;;;;;;;1.25;0.60;;;;;;;;;;5153498;28;20550;-63
2023/12/06 02:10:53;;;;;;;1.27;0.70;;;;;;;;;;5167027;28;20073;-63
2023/12/06 02:13:24;;;;;;;2.10;0.63;;;;;;;;;;5169588;28;20578;-63
2023/12/06 02:15:56;;;;;;;3.83;0.80;;;;;;;;;;5166567;28;20042;-63
2023/12/06 02:18:28;;;;;;;2.20;0.60;;;;;;;;;;5166512;28;20121;-62
2023/12/06 02:20:59;;;;;;;2.63;0.45;;;;;;;;;;5166216;28;20124;-62
2023/12/06 02:23:31;;;;;;;2.13;0.60;;;;;;;;;;5165718;28;20500;-62
2023/12/06 02:26:02;;;;;;;0.80;0.47;;;;;;;;;;5166898;28;20772;-62
2023/12/06 02:28:33;;;;;;;1.60;0.70;;;;;;;;;;5166311;28;20553;-63
2023/12/06 02:31:04;;;;;;;1.63;0.75;;;;;;;;;;5166433;28;20063;-62
2023/12/06 02:33:36;;;;;;;1.38;0.60;;;;;;;;;;5166564;28;20100;-63
2023/12/06 02:36:09;;;;;;;1.83;0.80;;;;;;;;;;5178332;28;20047;-63
2023/12/06 02:38:41;;;;;;;3.08;0.70;;;;;;;;;;5166156;28;20038;-63
2023/12/06 02:41:13;;;;;;;1.45;0.55;;;;;;;;;;5178775;28;20053;-64
2023/12/06 02:43:45;;;;;;;1.23;0.43;;;;;;;;;;5165863;28;20506;-63
2023/12/06 02:46:16;;;;;;;2.83;0.80;;;;;;;;;;5164636;28;20095;-65
2023/12/06 02:48:47;;;;;;;1.48;0.65;;;;;;;;;;5166054;28;20100;-66
2023/12/06 02:51:18;;;;;;;1.08;0.60;;;;;;;;;;5166085;28;20038;-68
2023/12/06 02:53:52;;;;;;;2.78;0.50;;;;;;;;;;5165826;28;20152;-67
2023/12/06 02:56:24;;;;;;;2.63;0.73;;;;;;;;;;5166023;28;20049;-67
2023/12/06 02:58:55;;;;;;;2.30;0.65;;;;;;;;;;5165321;28;20049;-63
2023/12/06 03:01:26;;;;;;;1.55;0.80;;;;;;;;;;5165819;28;20391;-71
2023/12/06 03:03:57;;;;;;;2.60;0.68;;;;;;;;;;5167590;28;20080;-73
2023/12/06 03:06:28;;;;;;;2.55;1.02;;;;;;;;;;5165541;28;20096;-67
2023/12/06 03:08:59;;;;;;;1.45;0.50;;;;;;;;;;5165617;28;20113;-69
2023/12/06 03:11:30;;;;;;;6.25;1.25;;;;;;;;;;5165591;28;20041;-67
2023/12/06 03:14:01;;;;;;;1.80;0.70;;;;;;;;;;5157346;28;20054;-69
2023/12/06 03:16:33;;;;;;;1.45;0.75;;;;;;;;;;5153984;28;20029;-67
2023/12/06 03:19:05;;;;;;;1.52;0.70;;;;;;;;;;5165586;28;20404;-66
2023/12/06 03:21:36;;;;;;;1.70;0.95;;;;;;;;;;5160670;28;20477;-67
2023/12/06 03:24:07;;;;;;;2.92;0.77;;;;;;;;;;5149001;28;20046;-67
2023/12/06 03:26:38;;;;;;;2.17;0.80;;;;;;;;;;5165181;28;20054;-68
2023/12/06 03:29:09;;;;;;;2.15;0.95;;;;;;;;;;5165543;28;20050;-65
2023/12/06 03:31:41;;;;;;;3.13;0.60;;;;;;;;;;5177415;28;20038;-68
2023/12/06 03:34:12;;;;;;;1.80;0.90;;;;;;;;;;5165227;28;20108;-68
2023/12/06 03:36:43;;;;;;;2.10;1.10;;;;;;;;;;5169659;28;20042;-68
2023/12/06 03:39:16;;;;;;;1.70;0.77;;;;;;;;;;5165005;28;20073;-69
2023/12/06 03:41:47;;;;;;;2.55;0.98;;;;;;;;;;5165306;28;20065;-65
2023/12/06 03:44:18;;;;;;;3.05;1.08;;;;;;;;;;5167036;28;20524;-65
2023/12/06 03:46:49;;;;;;;3.13;1.08;;;;;;;;;;5165604;28;20400;-63
2023/12/06 03:49:20;;;;;;;2.35;0.73;;;;;;;;;;5164074;28;20079;-62
2023/12/06 03:51:51;;;;;;;3.83;0.90;;;;;;;;;;5194998;28;20042;-62
2023/12/06 03:54:22;;;;;;;2.63;0.80;;;;;;;;;;5169208;28;20113;-62
2023/12/06 03:56:53;;;;;;;2.20;0.80;;;;;;;;;;5168863;28;20041;-62
2023/12/06 03:59:25;;;;;;;3.20;1.08;;;;;;;;;;5169220;28;20061;-63
2023/12/06 04:01:56;;;;;;;1.58;0.70;;;;;;;;;;5168899;28;20410;-63
2023/12/06 04:04:27;;;;;;;1.63;0.63;;;;;;;;;;5168909;28;20056;-62
2023/12/06 04:06:58;;;;;;;1.52;0.68;;;;;;;;;;5180473;28;20130;-63
2023/12/06 04:09:29;;;;;;;1.77;0.90;;;;;;;;;;5181020;28;20096;-63
2023/12/06 04:12:00;;;;;;;2.17;0.90;;;;;;;;;;5168972;28;20045;-63
2023/12/06 04:14:31;;;;;;;1.65;0.75;;;;;;;;;;5168324;28;20456;-62
2023/12/06 04:17:03;;;;;;;1.90;0.60;;;;;;;;;;5169382;28;20116;-62
2023/12/06 04:19:34;;;;;;;2.03;0.60;;;;;;;;;;5168963;28;20049;-62
2023/12/06 04:22:05;;;;;;;2.55;0.82;;;;;;;;;;5173422;28;20042;-62
2023/12/06 04:24:37;;;;;;;1.33;0.70;;;;;;;;;;5168572;28;20077;-62
2023/12/06 04:27:09;;;;;;;2.90;0.85;;;;;;;;;;5168680;28;20096;-62
2023/12/06 04:29:40;;;;;;;2.13;0.68;;;;;;;;;;5168536;28;20096;-62
2023/12/06 04:32:12;;;;;;;2.58;0.70;;;;;;;;;;5168590;28;20049;-63
2023/12/06 04:34:48;;;;;;;1.92;0.77;;;;;;;;;;5168381;28;20034;-64
2023/12/06 04:37:20;;;;;;;1.95;0.82;;;;;;;;;;5168529;28;20177;-63
2023/12/06 04:39:51;;;;;;;2.65;0.80;;;;;;;;;;5168847;28;20587;-65
2023/12/06 04:42:23;;;;;;;2.03;0.95;;;;;;;;;;5168504;28;20061;-63
2023/12/06 04:44:54;;;;;;;1.00;0.68;;;;;;;;;;5175772;28;20123;-63
2023/12/06 04:47:25;;;;;;;3.47;1.00;;;;;;;;;;5151881;28;20080;-64
2023/12/06 04:49:56;;;;;;;1.25;0.70;;;;;;;;;;5168640;28;20512;-63
2023/12/06 04:52:27;;;;;;;1.77;0.80;;;;;;;;;;5168712;28;20440;-63
2023/12/06 04:54:58;;;;;;;3.45;1.20;;;;;;;;;;5167978;28;20042;-64
2023/12/06 04:57:29;;;;;;;2.60;0.93;;;;;;;;;;5191580;28;20432;-63
2023/12/06 05:00:00;;;;;;;2.10;0.85;;;;;;;;;;5167504;28;20096;-63
2023/12/06 05:02:32;;;;;;;2.08;0.90;;;;;;;;;;5168046;28;20054;-63
2023/12/06 05:05:04;;;;;;;5.10;1.23;;;;;;;;;;5167919;28;20377;-63
2023/12/06 05:07:35;;;;;;;3.13;0.90;;;;;;;;;;5167896;28;20122;-64
2023/12/06 05:10:06;;;;;;;2.33;1.20;;;;;;;;;;5167618;28;20114;-63
2023/12/06 05:12:37;;;;;;;2.87;0.77;;;;;;;;;;5156399;28;20077;-64
2023/12/06 05:15:09;;;;;;;2.75;0.93;;;;;;;;;;5170886;28;20042;-64
2023/12/06 05:17:40;;;;;;;1.50;0.82;;;;;;;;;;5167550;28;20476;-63
2023/12/06 05:20:12;;;;;;;2.08;0.82;;;;;;;;;;5167824;28;20366;-62
2023/12/06 05:22:43;;;;;;;3.23;0.93;;;;;;;;;;5166453;28;20033;-63
2023/12/06 05:25:14;;;;;;;3.22;0.98;;;;;;;;;;5167763;28;20045;-62
2023/12/06 05:27:45;;;;;;;1.38;0.82;;;;;;;;;;5167577;28;20374;-63
2023/12/06 05:30:16;;;;;;;1.50;0.65;;;;;;;;;;5167695;28;20052;-63
2023/12/06 05:32:48;;;;;;;1.90;0.98;;;;;;;;;;5167178;28;20196;-62
2023/12/06 05:35:19;;;;;;;2.22;0.98;;;;;;;;;;5156237;28;20468;-63
2023/12/06 05:37:50;;;;;;;2.90;0.85;;;;;;;;;;5167912;28;20073;-63
2023/12/06 05:40:21;;;;;;;3.28;1.02;;;;;;;;;;5167173;28;20069;-63
2023/12/06 05:42:52;;;;;;;4.03;1.00;;;;;;;;;;5167502;28;20052;-63
2023/12/06 05:45:23;;;;;;;3.30;0.88;;;;;;;;;;5167174;28;20467;-63
2023/12/06 05:47:54;;;;;;;2.20;1.00;;;;;;;;;;5194806;28;20060;-63
2023/12/06 05:50:25;;;;;;;2.65;0.70;;;;;;;;;;5167189;28;20485;-63
2023/12/06 05:52:57;;;;;;;2.63;0.80;;;;;;;;;;5167077;28;20052;-63
2023/12/06 05:55:28;;;;;;;3.08;1.23;;;;;;;;;;5166566;28;20515;-63
2023/12/06 05:58:00;;;;;;;2.40;0.90;;;;;;;;;;5157795;28;20088;-63
2023/12/06 06:00:31;;;;;;;2.53;0.93;;;;;;;;;;5166605;28;20041;-61
2023/12/06 06:03:02;;;;;;;2.40;1.05;;;;;;;;;;5168095;28;20151;-62
2023/12/06 06:05:33;;;;;;;2.03;1.00;;;;;;;;;;5166999;28;20053;-64
2023/12/06 06:08:05;;;;;;;3.65;1.33;;;;;;;;;;5166396;28;20463;-62
2023/12/06 06:10:36;;;;;;;2.13;1.17;;;;;;;;;;5175177;28;20761;-63
2023/12/06 06:13:07;;;;;;;3.05;1.17;;;;;;;;;;5150342;28;20508;-62
2023/12/06 06:15:38;;;;;;;2.28;1.30;;;;;;;;;;5166531;28;20510;-63
2023/12/06 06:18:09;;;;;;;2.90;1.15;;;;;;;;;;5166822;28;20384;-64
2023/12/06 06:20:41;;;;;;;2.90;1.15;;;;;;;;;;5166152;28;20053;-63
2023/12/06 06:23:12;;;;;;;1.42;1.00;;;;;;;;;;5152140;28;20507;-63
2023/12/06 06:25:43;;;;;;;2.65;1.38;;;;;;;;;;5165892;28;20054;-63
2023/12/06 06:28:15;;;;;;;2.45;1.08;;;;;;;;;;5169157;28;20053;-63
2023/12/06 06:30:46;;;;;;;2.55;1.17;;;;;;;;;;5156493;28;20388;-63
2023/12/06 06:33:17;;;;;;;2.35;0.90;;;;;;;;;;5166215;28;20129;-63
2023/12/06 06:35:48;;;;;;;1.77;0.90;;;;;;;;;;5165739;28;20420;-63
2023/12/06 06:38:19;;;;;;;3.78;1.13;;;;;;;;;;5165992;28;20038;-63
2023/12/06 06:40:50;;;;;;;2.53;1.13;;;;;;;;;;5166986;28;20065;-63
2023/12/06 06:43:21;;;;;;;4.50;1.55;;;;;;;;;;5166440;28;20476;-63
2023/12/06 06:45:53;;;;;;;2.03;1.20;;;;;;;;;;5170002;28;20503;-63
2023/12/06 06:48:24;;;;;;;1.92;1.02;;;;;;;;;;5166011;28;20128;-64
2023/12/06 06:50:55;;;;;;;2.53;1.20;;;;;;;;;;5166283;28;20484;-64
2023/12/06 06:53:26;;;;;;;2.38;1.17;;;;;;;;;;5156170;28;20034;-63
2023/12/06 06:55:57;;;;;;;3.00;1.08;;;;;;;;;;5165736;28;20449;-63
2023/12/06 06:58:28;;;;;;;2.08;1.08;;;;;;;;;;5166136;28;20153;-62
2023/12/06 07:01:00;;;;;;;4.20;1.13;;;;;;;;;;5150308;28;20195;-62
2023/12/06 07:03:32;;;;;;;3.08;1.30;;;;;;;;;;5165255;28;20041;-62
2023/12/06 07:06:04;;;;;;;1.73;1.05;;;;;;;;;;5165251;28;20038;-64
2023/12/06 07:08:35;;;;;;;1.83;1.10;;;;;;;;;;5165093;28;20038;-64
2023/12/06 07:11:06;;;;;;;3.78;1.25;;;;;;;;;;5174022;28;20099;-64
2023/12/06 07:13:38;;;;;;;4.63;1.50;;;;;;;;;;5173389;28;20033;-65
2023/12/06 07:16:10;;;;;;;3.03;1.03;;;;;;;;;;5170640;28;20279;-63
2023/12/06 07:18:42;;;;;;;3.50;1.20;;;;;;;;;;5147516;28;20354;-62
2023/12/06 07:21:13;;;;;;;2.85;1.17;;;;;;;;;;5164517;28;20063;-64
2023/12/06 07:23:45;;;;;;;3.13;1.85;;;;;;;;;;5148836;28;20045;-63
2023/12/06 07:26:16;;;;;;;4.82;1.55;;;;;;;;;;5165552;28;20034;-62
2023/12/06 07:28:47;;;;;;;3.67;1.20;;;;;;;;;;5175332;28;20038;-61
2023/12/06 07:31:18;;;;;;;3.70;1.30;;;;;;;;;;5165155;28;20034;-62
2023/12/06 07:33:50;;;;;;;3.22;1.30;;;;;;;;;;5165079;28;20037;-62
2023/12/06 07:36:22;;;;;;;4.32;1.40;;;;;;;;;;5164518;28;20030;-62
2023/12/06 07:38:53;;;;;;;2.80;1.20;;;;;;;;;;5164554;28;20034;-61
2023/12/06 07:41:24;;;;;;;3.20;1.15;;;;;;;;;;5164982;28;20030;-62
2023/12/06 07:43:55;;;;;;;7.38;1.80;;;;;;;;;;5166102;28;20393;-62
2023/12/06 07:46:26;;;;;;;3.00;1.27;;;;;;;;;;5159428;28;20519;-63
2023/12/06 07:48:57;;;;;;;4.72;1.38;;;;;;;;;;5165029;28;20511;-62
2023/12/06 07:51:28;;;;;;;3.25;1.05;;;;;;;;;;5171485;28;20049;-62
2023/12/06 07:53:59;;;;;;;2.88;1.20;;;;;;;;;;5151350;28;20046;-64
2023/12/06 07:56:31;;;;;;;3.30;1.27;;;;;;;;;;5164367;28;20045;-65
2023/12/06 07:59:02;;;;;;;4.97;1.15;;;;;;;;;;5176187;28;20045;-63
2023/12/06 08:01:33;;;;;;;3.13;0.95;;;;;;;;;;5168767;28;20038;-64
2023/12/06 08:04:04;;;;;;;4.93;1.20;;;;;;;;;;5165107;28;20103;-63
2023/12/06 08:06:36;;;;;;;2.65;0.90;;;;;;;;;;5157815;28;20400;-63
2023/12/06 08:09:12;;;;;;;1.60;1.08;;;;;;;;;;5168597;28;20045;-63
2023/12/06 08:11:43;;;;;;;1.25;0.80;;;;;;;;;;5166456;28;20643;-63
2023/12/06 08:14:15;;;;;;;9.27;1.38;;;;;;;;;;5172243;28;20085;-63
2023/12/06 08:16:46;;;;;;;4.15;1.30;;;;;;;;;;5157817;28;20196;-63
2023/12/06 08:19:17;;;;;;;3.55;1.48;;;;;;;;;;5154301;28;20523;-63
2023/12/06 08:21:49;;;;;;;2.73;1.27;;;;;;;;;;5148535;28;20095;-63
2023/12/06 08:24:20;;;;;;;4.45;1.10;;;;;;;;;;5169718;28;20049;-63
2023/12/06 08:26:52;;;;;;;2.53;1.20;;;;;;;;;;5164426;28;20488;-63
2023/12/06 08:29:23;;;;;;;4.17;1.60;;;;;;;;;;5160170;28;20049;-63
2023/12/06 08:31:54;;;;;;;3.13;1.30;;;;;;;;;;5173599;28;20381;-63
2023/12/06 08:34:26;;;;;;;5.15;1.23;;;;;;;;;;5166682;28;20042;-63
2023/12/06 08:36:57;;;;;;;3.15;1.15;;;;;;;;;;5173045;28;20172;-63
2023/12/06 08:39:28;;;;;;;3.10;1.52;;;;;;;;;;5169204;28;20034;-64
2023/12/06 08:41:59;;;;;;;3.42;1.40;;;;;;;;;;5169133;28;20042;-63
2023/12/06 08:44:30;;;;;;;3.15;1.30;;;;;;;;;;5168557;28;20042;-63
2023/12/06 08:47:02;;;;;;;3.65;1.30;;;;;;;;;;5158715;28;20053;-63
2023/12/06 08:49:34;;;;;;;4.20;1.30;;;;;;;;;;5173034;28;20037;-62
2023/12/06 08:52:06;;;;;;;3.72;1.27;;;;;;;;;;5168531;28;20045;-62
2023/12/06 08:54:38;;;;;;;4.97;1.30;;;;;;;;;;5168464;28;20053;-62
2023/12/06 08:57:09;;;;;;;5.65;1.63;;;;;;;;;;5171143;28;20282;-62
2023/12/06 08:59:41;;;;;;;5.13;1.98;;;;;;;;;;5178309;28;20062;-61
2023/12/06 09:02:12;;;;;;;3.65;1.25;;;;;;;;;;5171432;28;20129;-60
2023/12/06 09:04:43;;;;;;;3.67;2.00;;;;;;;;;;5167890;28;20108;-57
2023/12/06 09:07:15;;;;;;;5.00;1.38;;;;;;;;;;5176981;28;20068;-58
2023/12/06 09:09:46;;;;;;;;;;;;;;;;;;5158690;28;20497;-61
2023/12/06 09:12:17;;;;;;;4.90;1.88;;;;;;;;;;5167562;28;19924;-61
2023/12/06 09:14:48;;;;;;;7.18;3.50;;;;;;;;;;5168095;28;20042;-58
2023/12/06 09:17:19;;;;;;;6.25;2.85;;;;;;;;;;5167629;28;20042;-60
2023/12/06 09:19:52;;;;;;;4.15;2.47;;;;;;;;;;5171111;28;20511;-62
2023/12/06 09:22:23;;;;;;;;;;;;;;;;;;5167382;28;20144;-62
2023/12/06 09:24:54;;;;;;;8.75;2.42;;;;;;;;;;5168024;28;19980;-68
2023/12/06 09:27:28;;;;;;;9.18;3.28;;;;;;;;;;5167837;28;20054;-63
2023/12/06 09:29:59;;;;;;;5.50;2.05;;;;;;;;;;5167801;28;20042;-66
2023/12/06 09:32:31;;;;;;;3.25;2.03;;;;;;;;;;5167557;28;20064;-64
2023/12/06 09:35:02;;;;;;;3.67;2.10;;;;;;;;;;5163171;28;20427;-67
2023/12/06 09:37:33;;;;;;;4.65;2.10;;;;;;;;;;5180270;28;20424;-66
2023/12/06 09:40:05;;;;;;;7.82;2.72;;;;;;;;;;5167499;28;20416;-61
2023/12/06 09:42:37;;;;;;;3.37;2.13;;;;;;;;;;5167468;28;20057;-62
2023/12/06 09:45:09;;;;;;;5.72;2.05;;;;;;;;;;5166937;28;20283;-63
2023/12/06 09:47:42;;;;;;;4.23;2.43;;;;;;;;;;5167357;28;20073;-69
2023/12/06 09:50:14;;;;;;;6.55;2.03;;;;;;;;;;5167642;28;20131;-66
2023/12/06 09:52:50;;;;;;;4.47;1.98;;;;;;;;;;5157780;28;20504;-67
2023/12/06 09:55:24;;;;;;;6.72;2.00;;;;;;;;;;5167108;28;20041;-64
2023/12/06 09:57:56;;;;;;;4.88;2.00;;;;;;;;;;5166964;28;20045;-64
2023/12/06 10:00:27;;;;;;;6.25;2.00;;;;;;;;;;5169328;28;20069;-66
2023/12/06 10:02:59;;;;;;;5.77;2.27;;;;;;;;;;5163052;28;20046;-64
2023/12/06 10:05:30;;;;;;;5.43;2.08;;;;;;;;;;5155392;28;20101;-67
2023/12/06 10:08:01;;;;;;;4.10;1.60;;;;;;;;;;5161314;28;20045;-66
2023/12/06 10:10:32;;;;;;;3.30;1.73;;;;;;;;;;5166732;28;20038;-67
2023/12/06 10:13:04;;;;;;;4.23;1.90;;;;;;;;;;5166290;28;20050;-62
2023/12/06 10:15:38;;;;;;;3.60;1.30;;;;;;;;;;5161593;28;20051;-61
2023/12/06 10:18:10;;;;;;;5.40;2.80;;;;;;;;;;5159086;28;20037;-61
2023/12/06 10:20:43;;;;;;;3.83;2.30;;;;;;;;;;5166094;28;20069;-61
2023/12/06 10:23:14;;;;;;;2.33;1.38;;;;;;;;;;5163663;28;20045;-62
2023/12/06 10:25:49;;;;;;;26.40;12.40;;;;;;;;;;5166687;28;20485;-61
2023/12/06 10:28:20;;;;;;;18.20;8.02;;;;;;;;;;5169553;28;20045;-62
2023/12/06 10:31:02;;;;;;;127.37;56.60;;;;;;;;;;5171856;28;20041;-62
2023/12/06 10:33:33;;;;;;;206.45;98.15;;;;;;;;;;5166658;28;20073;-62
2023/12/06 10:36:05;;;;;;;142.77;71.30;;;;;;;;;;5166162;28;20042;-63
2023/12/06 10:38:43;;;;;;;164.20;69.35;;;;;;;;;;5166339;28;20275;-63
2023/12/06 10:41:17;;;;;;;237.80;104.60;;;;;;;;;;5177961;28;20049;-63
2023/12/06 10:43:48;;;;;;;58.45;28.52;;;;;;;;;;5166266;28;20046;-62
2023/12/06 10:46:20;;;;;;;10.53;5.50;;;;;;;;;;5170672;28;20069;-67
2023/12/06 10:48:52;;;;;;;54.03;24.13;;;;;;;;;;5167254;28;20129;-67
2023/12/06 10:51:25;;;;;;;6.05;3.60;;;;;;;;;;5175103;28;20045;-71
2023/12/06 10:53:57;;;;;;;10.93;5.13;;;;;;;;;;5152820;28;20038;-63
2023/12/06 10:56:28;;;;;;;10.93;3.45;;;;;;;;;;5165771;28;20121;-69
2023/12/06 10:59:03;;;;;;;8.00;2.65;;;;;;;;;;5166420;28;20121;-66
2023/12/06 11:01:36;;;;;;;13.45;2.17;;;;;;;;;;5166168;28;20042;-65
2023/12/06 11:04:08;;;;;;;7.53;2.53;;;;;;;;;;5166510;28;20100;-62
2023/12/06 11:06:46;;;;;;;4.47;2.20;;;;;;;;;;5153592;28;20037;-66
2023/12/06 11:09:39;;;;;;;4.32;2.25;;;;;;;;;;5167909;28;20041;-67
2023/12/06 11:12:24;;;;;;;4.35;2.20;;;;;;;;;;5161569;28;20143;-69
2023/12/06 11:15:02;;;;;;;6.32;1.90;;;;;;;;;;5164234;28;20323;-70
2023/12/06 11:17:42;;;;;;;5.72;2.50;;;;;;;;;;5165757;28;20049;-72
2023/12/06 11:20:14;;;;;;;6.25;2.67;;;;;;;;;;5163440;28;20044;-73
2023/12/06 11:22:45;;;;;;;5.70;3.00;;;;;;;;;;5167400;28;20088;-72
2023/12/06 11:25:16;;;;;;;2.67;2.00;;;;;;;;;;5165935;28;20049;-64
2023/12/06 11:27:50;;;;;;;3.85;2.33;;;;;;;;;;5165672;28;20291;-68
2023/12/06 11:30:22;;;;;;;3.30;2.40;;;;;;;;;;5171033;28;20388;-70
2023/12/06 11:32:56;;;;;;;4.40;2.58;;;;;;;;;;5153039;28;20053;-65
2023/12/06 11:35:28;;;;;;;6.60;2.85;;;;;;;;;;5155006;28;20049;-62
2023/12/06 11:38:00;;;;;;;4.30;2.72;;;;;;;;;;5180907;28;20129;-60
2023/12/06 11:40:32;;;;;;;5.72;2.70;;;;;;;;;;5167175;28;20111;-64
2023/12/06 11:43:03;;;;;;;6.55;2.65;;;;;;;;;;5155260;28;20068;-64
2023/12/06 11:45:39;;;;;;;7.60;2.97;;;;;;;;;;5175637;28;20538;-63
2023/12/06 11:48:13;;;;;;;4.85;2.47;;;;;;;;;;5166218;28;20291;-63
2023/12/06 11:50:46;;;;;;;6.63;3.10;;;;;;;;;;5171955;28;20658;-63
2023/12/06 11:53:17;;;;;;;6.35;2.63;;;;;;;;;;5165956;28;20468;-63
2023/12/06 11:55:48;;;;;;;5.88;3.20;;;;;;;;;;5170461;28;20046;-63
2023/12/06 11:58:20;;;;;;;5.15;2.80;;;;;;;;;;5165820;28;20038;-63
2023/12/06 12:00:54;;;;;;;;;;;;;;;;;;5166134;28;20046;-63
2023/12/06 12:03:26;;;;;;;6.40;2.45;;;;;;;;;;5181725;28;19921;-64
2023/12/06 12:05:58;;;;;;;4.57;2.78;;;;;;;;;;5166002;28;20073;-63
2023/12/06 12:08:29;;;;;;;5.25;2.75;;;;;;;;;;5165857;28;20054;-63
2023/12/06 12:11:00;;;;;;;5.13;2.60;;;;;;;;;;5169826;28;20073;-62
2023/12/06 12:13:36;;;;;;;6.85;2.65;;;;;;;;;;5169144;28;20084;-63
2023/12/06 12:16:07;;;;;;;3.67;2.25;;;;;;;;;;5175173;28;20046;-63
2023/12/06 12:18:38;;;;;;;5.93;3.03;;;;;;;;;;5169551;28;20056;-63
2023/12/06 12:21:11;;;;;;;8.13;3.47;;;;;;;;;;5168473;28;20287;-62
2023/12/06 12:23:42;;;;;;;6.72;3.20;;;;;;;;;;5169115;28;20046;-62
2023/12/06 12:26:14;;;;;;;4.65;3.05;;;;;;;;;;5169457;28;20460;-63
2023/12/06 12:28:45;;;;;;;7.68;2.88;;;;;;;;;;5168943;28;20473;-63
2023/12/06 12:31:18;;;;;;;4.07;2.65;;;;;;;;;;5168625;28;20041;-62
2023/12/06 12:33:49;;;;;;;6.57;2.92;;;;;;;;;;5169523;28;20371;-62
2023/12/06 12:36:21;;;;;;;4.90;2.83;;;;;;;;;;5169075;28;20038;-64
2023/12/06 12:38:52;;;;;;;7.70;3.30;;;;;;;;;;5168925;28;20046;-62
2023/12/06 12:41:23;;;;;;;3.90;2.60;;;;;;;;;;5169038;28;20121;-63
2023/12/06 12:43:55;;;;;;;4.32;2.88;;;;;;;;;;5168855;28;20037;-62
2023/12/06 12:46:26;;;;;;;;;;;;;;;;;;5169417;28;20037;-63
2023/12/06 12:48:57;;;;;;;3.97;2.42;;;;;;;;;;5167691;28;19969;-63
2023/12/06 12:51:33;;;;;;;7.80;3.35;;;;;;;;;;5153069;28;20476;-63
2023/12/06 12:54:05;;;;;;;9.10;3.20;;;;;;;;;;5168802;28;20229;-63
2023/12/06 12:56:38;;;;;;;5.47;3.03;;;;;;;;;;5169197;28;20496;-64
2023/12/06 12:59:10;;;;;;;5.38;3.20;;;;;;;;;;5168351;28;20042;-63
2023/12/06 13:01:42;;;;;;;5.60;2.72;;;;;;;;;;5168403;28;20072;-62
2023/12/06 13:04:13;;;;;;;5.65;2.97;;;;;;;;;;5168574;28;20121;-63
2023/12/06 13:06:44;;;;;;;6.47;3.03;;;;;;;;;;5168415;28;20045;-62
2023/12/06 13:09:15;;;;;;;8.93;3.38;;;;;;;;;;5168876;28;20049;-63
2023/12/06 13:11:47;;;;;;;5.38;3.03;;;;;;;;;;5168520;28;20056;-63
2023/12/06 13:14:18;;;;;;;5.18;3.45;;;;;;;;;;5168457;28;20042;-63
2023/12/06 13:16:49;;;;;;;7.15;3.20;;;;;;;;;;5168795;28;20053;-63
2023/12/06 13:19:20;;;;;;;10.43;3.67;;;;;;;;;;5168043;28;20045;-62
2023/12/06 13:21:51;;;;;;;9.23;3.53;;;;;;;;;;5167766;28;20080;-69
2023/12/06 13:24:23;;;;;;;6.95;3.28;;;;;;;;;;5151883;28;20117;-71
2023/12/06 13:26:54;;;;;;;5.32;3.08;;;;;;;;;;5168512;28;20173;-70
2023/12/06 13:29:25;;;;;;;7.07;3.53;;;;;;;;;;5168205;28;20050;-71
2023/12/06 13:31:56;;;;;;;6.85;3.42;;;;;;;;;;5168711;28;20048;-71
2023/12/06 13:34:27;;;;;;;7.57;4.05;;;;;;;;;;5167968;28;20042;-71
2023/12/06 13:36:58;;;;;;;7.25;3.42;;;;;;;;;;5168595;28;20448;-69
2023/12/06 13:39:29;;;;;;;7.75;4.20;;;;;;;;;;5171825;28;20041;-70
2023/12/06 13:42:01;;;;;;;5.38;3.50;;;;;;;;;;5168009;28;20048;-71
2023/12/06 13:44:32;;;;;;;6.57;3.60;;;;;;;;;;5167291;28;20104;-71
2023/12/06 13:47:03;;;;;;;9.35;4.05;;;;;;;;;;5177743;28;20038;-70
2023/12/06 13:49:34;;;;;;;9.17;3.53;;;;;;;;;;5172170;28;20522;-70
2023/12/06 13:52:05;;;;;;;6.50;3.80;;;;;;;;;;5171290;28;20042;-69
2023/12/06 13:54:38;;;;;;;5.50;3.42;;;;;;;;;;5167373;28;20038;-64
2023/12/06 13:57:09;;;;;;;10.60;4.07;;;;;;;;;;5167759;28;20103;-64
2023/12/06 13:59:40;;;;;;;7.30;4.47;;;;;;;;;;5167804;28;20493;-63
2023/12/06 14:02:13;;;;;;;7.78;4.03;;;;;;;;;;5167444;28;20034;-64
2023/12/06 14:04:44;;;;;;;7.25;4.50;;;;;;;;;;5167678;28;20520;-63
2023/12/06 14:07:15;;;;;;;8.38;4.40;;;;;;;;;;5167814;28;20041;-63
2023/12/06 14:09:47;;;;;;;7.28;3.92;;;;;;;;;;5167303;28;20125;-63
2023/12/06 14:12:18;;;;;;;5.57;3.63;;;;;;;;;;5167376;28;20516;-63
2023/12/06 14:14:49;;;;;;;7.13;3.70;;;;;;;;;;5167312;28;20081;-63
2023/12/06 14:17:20;;;;;;;9.02;4.60;;;;;;;;;;5167857;28;20511;-63
2023/12/06 14:19:52;;;;;;;7.38;3.55;;;;;;;;;;5167426;28;20041;-64
2023/12/06 14:22:23;;;;;;;5.60;3.70;;;;;;;;;;5162737;28;20034;-63
2023/12/06 14:24:55;;;;;;;6.05;3.63;;;;;;;;;;5167116;28;20106;-64
2023/12/06 14:27:26;;;;;;;7.32;3.55;;;;;;;;;;5163812;28;20501;-63
2023/12/06 14:29:57;;;;;;;6.03;3.50;;;;;;;;;;5167135;28;20053;-63
2023/12/06 14:32:28;;;;;;;5.82;3.67;;;;;;;;;;5166243;28;20050;-64
2023/12/06 14:34:59;;;;;;;8.05;4.05;;;;;;;;;;5166849;28;20057;-64
2023/12/06 14:37:30;;;;;;;10.32;4.05;;;;;;;;;;5166872;28;20081;-65
2023/12/06 14:40:03;;;;;;;8.52;3.83;;;;;;;;;;5167235;28;20542;-62
2023/12/06 14:42:34;;;;;;;6.75;3.65;;;;;;;;;;5166564;28;20076;-63
2023/12/06 14:45:10;;;;;;;7.25;3.83;;;;;;;;;;5167077;28;20041;-63
2023/12/06 14:47:41;;;;;;;6.72;4.38;;;;;;;;;;5167037;28;20045;-63
2023/12/06 14:50:12;;;;;;;7.97;4.18;;;;;;;;;;5161496;28;20392;-63
2023/12/06 14:52:43;;;;;;;7.07;3.90;;;;;;;;;;5166869;28;20065;-63
2023/12/06 14:55:15;;;;;;;5.88;3.42;;;;;;;;;;5170020;28;20103;-63
2023/12/06 14:57:47;;;;;;;7.93;4.28;;;;;;;;;;5166331;28;20152;-63
2023/12/06 15:00:19;;;;;;;8.20;4.05;;;;;;;;;;5166237;28;20049;-64
2023/12/06 15:02:50;;;;;;;6.30;4.22;;;;;;;;;;5170566;28;20049;-63
2023/12/06 15:05:21;;;;;;;7.47;4.37;;;;;;;;;;5168073;28;20079;-63
2023/12/06 15:07:53;;;;;;;7.88;4.43;;;;;;;;;;5166204;28;20096;-63
2023/12/06 15:10:26;;;;;;;;;;;;;;;;;;5158878;28;20045;-63